createdAt,value
2019-02-19T00:00:57.195Z,99626.31
2019-02-19T00:03:29.587Z,99629.80
2019-02-19T00:06:02.017Z,99621.11
2019-02-19T00:08:34.422Z,99619.25
2019-02-19T00:11:06.845Z,99628.30
2019-02-19T00:13:39.264Z,99626.86
2019-02-19T00:16:11.730Z,99626.94
2019-02-19T00:18:44.145Z,99628.84
2019-02-19T00:21:16.576Z,99626.69
2019-02-19T00:23:48.960Z,99625.95
2019-02-19T00:26:21.383Z,99625.08
2019-02-19T00:28:53.917Z,99627.59
2019-02-19T00:31:26.334Z,99625.26
2019-02-19T00:33:58.748Z,99624.02
2019-02-19T00:36:31.184Z,99626.80
2019-02-19T00:39:04.738Z,99626.03
2019-02-19T00:41:38.373Z,99633.52
2019-02-19T00:44:10.914Z,99630.75
2019-02-19T00:46:43.355Z,99629.19
2019-02-19T00:49:15.771Z,99622.53
2019-02-19T00:51:48.218Z,99620.23
2019-02-19T00:54:20.621Z,99625.22
2019-02-19T00:56:53.037Z,99623.95
2019-02-19T00:59:25.468Z,99627.08
2019-02-19T01:01:57.887Z,99630.48
2019-02-19T01:04:30.300Z,99631.86
2019-02-19T01:07:02.729Z,99629.78
2019-02-19T01:09:35.134Z,99628.61
2019-02-19T01:12:07.555Z,99627.95
2019-02-19T01:14:39.943Z,99627.05
2019-02-19T01:17:12.372Z,99628.22
2019-02-19T01:19:44.770Z,99628.94
2019-02-19T01:22:17.297Z,99625.11
2019-02-19T01:24:49.694Z,99622.34
2019-02-19T01:27:22.107Z,99623.61
2019-02-19T01:29:54.709Z,99627.23
2019-02-19T01:32:27.130Z,99624.58
2019-02-19T01:34:59.580Z,99621.78
2019-02-19T01:37:31.975Z,99624.90
2019-02-19T01:40:04.950Z,99619.98
2019-02-19T01:42:37.346Z,99621.87
2019-02-19T01:45:10.319Z,99620.21
2019-02-19T01:47:42.718Z,99619.58
2019-02-19T01:50:15.138Z,99617.77
2019-02-19T01:52:47.542Z,99617.66
2019-02-19T01:55:19.960Z,99611.80
2019-02-19T01:57:52.389Z,99610.91
2019-02-19T02:00:24.805Z,99619.46
2019-02-19T02:02:57.197Z,99610.41
2019-02-19T02:05:30.796Z,99613.67
2019-02-19T02:08:03.200Z,99611.73
2019-02-19T02:10:35.560Z,99608.23
2019-02-19T02:13:07.960Z,99615.00
2019-02-19T02:15:42.670Z,99611.08
2019-02-19T02:18:14.487Z,99607.08
2019-02-19T02:20:46.913Z,99606.22
2019-02-19T02:23:19.326Z,99601.55
2019-02-19T02:25:51.762Z,99600.39
2019-02-19T02:28:24.193Z,99604.19
2019-02-19T02:30:56.623Z,99600.80
2019-02-19T02:33:29.048Z,99597.95
2019-02-19T02:36:01.474Z,99597.78
2019-02-19T02:38:33.873Z,99598.95
2019-02-19T02:41:06.307Z,99602.84
2019-02-19T02:43:38.734Z,99601.16
2019-02-19T02:46:11.140Z,99601.60
2019-02-19T02:48:43.531Z,99604.94
2019-02-19T02:51:15.966Z,99608.98
2019-02-19T02:53:48.359Z,99606.52
2019-02-19T02:56:20.788Z,99604.30
2019-02-19T02:58:53.203Z,99602.25
2019-02-19T03:01:25.574Z,99602.73
2019-02-19T03:03:57.980Z,99604.55
2019-02-19T03:06:37.141Z,99600.02
2019-02-19T03:09:09.557Z,99599.41
2019-02-19T03:11:41.959Z,99599.18
2019-02-19T03:14:14.488Z,99599.41
2019-02-19T03:16:46.910Z,99593.71
2019-02-19T03:19:19.325Z,99596.51
2019-02-19T03:21:51.739Z,99600.36
2019-02-19T03:24:24.140Z,99595.55
2019-02-19T03:26:56.485Z,99598.12
2019-02-19T03:29:29.122Z,99601.63
2019-02-19T03:32:01.540Z,99610.00
2019-02-19T03:34:33.949Z,99607.67
2019-02-19T03:37:06.365Z,99609.09
2019-02-19T03:39:38.765Z,99614.20
2019-02-19T03:42:11.178Z,99608.23
2019-02-19T03:44:43.575Z,99611.03
2019-02-19T03:47:16.007Z,99614.36
2019-02-19T03:49:48.410Z,99614.99
2019-02-19T03:52:20.852Z,99616.58
2019-02-19T03:54:53.266Z,99614.75
2019-02-19T03:57:25.680Z,99617.59
2019-02-19T03:59:58.105Z,99616.09
2019-02-19T04:02:30.457Z,99611.97
2019-02-19T04:05:02.869Z,99609.86
2019-02-19T04:07:35.370Z,99611.87
2019-02-19T04:10:08.126Z,99616.86
2019-02-19T04:12:40.461Z,99615.69
2019-02-19T04:15:12.870Z,99616.70
2019-02-19T04:17:45.301Z,99614.66
2019-02-19T04:20:17.703Z,99617.66
2019-02-19T04:22:50.132Z,99618.84
2019-02-19T04:25:22.546Z,99618.13
2019-02-19T04:27:55.183Z,99614.47
2019-02-19T04:30:27.589Z,99616.44
2019-02-19T04:33:00.103Z,99610.94
2019-02-19T04:35:32.505Z,99613.66
2019-02-19T04:38:04.925Z,99613.82
2019-02-19T04:40:37.338Z,99615.80
2019-02-19T04:43:09.794Z,99614.77
2019-02-19T04:45:42.278Z,99617.73
2019-02-19T04:48:14.708Z,99617.86
2019-02-19T04:50:47.224Z,99620.95
2019-02-19T04:53:19.747Z,99616.95
2019-02-19T04:55:52.152Z,99620.61
2019-02-19T04:58:24.581Z,99626.06
2019-02-19T05:00:57.010Z,99623.77
2019-02-19T05:03:29.534Z,99614.61
2019-02-19T05:06:01.949Z,99615.40
2019-02-19T05:08:34.672Z,99620.48
2019-02-19T05:11:07.176Z,99614.76
2019-02-19T05:13:39.895Z,99614.47
2019-02-19T05:16:12.313Z,99610.86
2019-02-19T05:18:44.710Z,99619.64
2019-02-19T05:21:17.099Z,99622.01
2019-02-19T05:23:49.496Z,99625.04
2019-02-19T05:26:21.883Z,99620.54
2019-02-19T05:28:54.300Z,99622.77
2019-02-19T05:31:26.782Z,99625.46
2019-02-19T05:33:59.287Z,99628.02
2019-02-19T05:36:31.667Z,99624.29
2019-02-19T05:39:05.183Z,99628.25
2019-02-19T05:41:38.737Z,99624.55
2019-02-19T05:44:11.125Z,99612.36
2019-02-19T05:46:49.895Z,99611.64
2019-02-19T05:49:18.823Z,99617.01
2019-02-19T05:51:51.407Z,99617.28
2019-02-19T05:54:23.992Z,99621.78
2019-02-19T05:56:56.361Z,99621.90
2019-02-19T05:59:28.738Z,99620.20
2019-02-19T06:02:01.163Z,99624.26
2019-02-19T06:04:33.739Z,99624.80
2019-02-19T06:07:06.212Z,99625.39
2019-02-19T06:09:38.614Z,99630.84
2019-02-19T06:12:10.987Z,99626.66
2019-02-19T06:14:43.479Z,99627.38
2019-02-19T06:17:15.897Z,99629.77
2019-02-19T06:19:48.268Z,99637.67
2019-02-19T06:22:20.644Z,99634.84
2019-02-19T06:24:53.068Z,99644.61
2019-02-19T06:27:25.440Z,99645.84
2019-02-19T06:29:57.865Z,99655.06
2019-02-19T06:32:30.234Z,99652.21
2019-02-19T06:35:02.635Z,99650.13
2019-02-19T06:37:35.004Z,99653.23
2019-02-19T06:40:09.474Z,99654.05
2019-02-19T06:42:41.820Z,99656.99
2019-02-19T06:45:14.217Z,99661.05
2019-02-19T06:47:46.619Z,99667.17
2019-02-19T06:50:19.018Z,99671.45
2019-02-19T06:52:51.460Z,99670.81
2019-02-19T06:55:23.855Z,99664.60
2019-02-19T06:57:56.304Z,99663.31
2019-02-19T07:00:28.709Z,99665.87
2019-02-19T07:03:10.524Z,99671.27
2019-02-19T07:05:42.926Z,99674.52
2019-02-19T07:08:15.299Z,99679.13
2019-02-19T07:10:48.759Z,99676.11
2019-02-19T07:13:21.131Z,99665.94
2019-02-19T07:15:53.526Z,99661.31
2019-02-19T07:18:25.978Z,99656.31
2019-02-19T07:20:58.379Z,99652.77
2019-02-19T07:23:30.751Z,99638.56
2019-02-19T07:26:03.161Z,99646.58
2019-02-19T07:28:35.483Z,99653.18
2019-02-19T07:31:07.911Z,99665.13
2019-02-19T07:33:40.296Z,99680.45
2019-02-19T07:36:13.771Z,99701.50
2019-02-19T07:38:46.217Z,99704.34
2019-02-19T07:41:20.182Z,99711.99
2019-02-19T07:43:54.195Z,99717.12
2019-02-19T07:46:26.786Z,99724.36
2019-02-19T07:49:00.729Z,99726.25
2019-02-19T07:51:33.121Z,99725.72
2019-02-19T07:54:05.591Z,99729.19
2019-02-19T07:56:38.071Z,99728.66
2019-02-19T07:59:10.437Z,99726.83
2019-02-19T08:01:42.847Z,99730.00
2019-02-19T08:04:15.222Z,99733.22
2019-02-19T08:06:47.620Z,99736.66
2019-02-19T08:09:20.000Z,99733.73
2019-02-19T08:11:52.399Z,99736.25
2019-02-19T08:14:24.775Z,99737.48
2019-02-19T08:16:58.045Z,99742.36
2019-02-19T08:19:31.408Z,99745.74
2019-02-19T08:22:03.911Z,99755.09
2019-02-19T08:24:36.299Z,99755.92
2019-02-19T08:27:08.808Z,99761.17
2019-02-19T08:29:41.196Z,99768.20
2019-02-19T08:32:13.611Z,99771.16
2019-02-19T08:34:45.978Z,99771.45
2019-02-19T08:37:18.377Z,99777.80
2019-02-19T08:39:50.748Z,99783.98
2019-02-19T08:42:23.258Z,99785.67
2019-02-19T08:44:55.674Z,99782.22
2019-02-19T08:47:28.067Z,99783.08
2019-02-19T08:50:00.372Z,99779.98
2019-02-19T08:52:32.876Z,99784.59
2019-02-19T08:55:05.281Z,99786.32
2019-02-19T08:57:37.688Z,99791.50
2019-02-19T09:00:10.992Z,99792.69
2019-02-19T09:02:44.943Z,99794.99
2019-02-19T09:05:17.319Z,99796.34
2019-02-19T09:07:49.721Z,99800.42
2019-02-19T09:10:22.092Z,99804.32
2019-02-19T09:12:54.482Z,99814.63
2019-02-19T09:15:26.839Z,99818.47
2019-02-19T09:17:59.322Z,99822.58
2019-02-19T09:20:31.697Z,99817.59
2019-02-19T09:23:04.093Z,99817.23
2019-02-19T09:25:36.560Z,99812.05
2019-02-19T09:28:08.965Z,99815.94
2019-02-19T09:30:41.363Z,99823.00
2019-02-19T09:33:13.861Z,99825.02
2019-02-19T09:35:46.219Z,99822.45
2019-02-19T09:38:19.016Z,99826.91
2019-02-19T09:40:51.388Z,99826.70
2019-02-19T09:43:24.865Z,99829.84
2019-02-19T09:45:59.008Z,99829.41
2019-02-19T09:48:31.553Z,99827.69
2019-02-19T09:51:04.052Z,99832.81
2019-02-19T09:53:36.455Z,99836.82
2019-02-19T09:56:08.948Z,99836.63
2019-02-19T09:58:41.357Z,99839.50
2019-02-19T10:01:13.741Z,99835.45
2019-02-19T10:03:46.149Z,99836.25
2019-02-19T10:06:18.527Z,99831.02
2019-02-19T10:08:50.935Z,99836.86
2019-02-19T10:11:23.323Z,99845.45
2019-02-19T10:13:55.724Z,99843.72
2019-02-19T10:16:28.113Z,99847.05
2019-02-19T10:19:00.533Z,99847.84
2019-02-19T10:21:32.957Z,99855.89
2019-02-19T10:24:05.363Z,99856.67
2019-02-19T10:26:37.765Z,99864.13
2019-02-19T10:29:10.154Z,99872.36
2019-02-19T10:31:42.573Z,99870.44
2019-02-19T10:34:14.944Z,99865.66
2019-02-19T10:36:47.546Z,99868.77
2019-02-19T10:39:19.931Z,99876.58
2019-02-19T10:41:53.032Z,99882.53
2019-02-19T10:44:25.444Z,99888.74
2019-02-19T10:46:57.880Z,99886.34
2019-02-19T10:49:30.358Z,99888.74
2019-02-19T10:52:02.761Z,99892.30
2019-02-19T10:54:35.149Z,99890.73
2019-02-19T10:57:07.556Z,99896.98
2019-02-19T10:59:39.937Z,99896.69
2019-02-19T11:02:12.343Z,99894.22
2019-02-19T11:04:44.711Z,99893.17
2019-02-19T11:07:17.116Z,99891.03
2019-02-19T11:09:49.507Z,99890.41
2019-02-19T11:12:22.201Z,99886.67
2019-02-19T11:14:54.575Z,99886.48
2019-02-19T11:17:26.985Z,99885.44
2019-02-19T11:19:59.296Z,99888.22
2019-02-19T11:22:31.623Z,99882.60
2019-02-19T11:25:04.024Z,99885.05
2019-02-19T11:27:36.434Z,99889.98
2019-02-19T11:30:12.383Z,99882.03
2019-02-19T11:32:44.861Z,99882.73
2019-02-19T11:35:17.183Z,99881.20
2019-02-19T11:37:49.587Z,99875.54
2019-02-19T11:40:21.965Z,99880.97
2019-02-19T11:42:54.441Z,99875.95
2019-02-19T11:45:26.878Z,99875.88
2019-02-19T11:47:59.280Z,99878.24
2019-02-19T11:50:31.696Z,99878.09
2019-02-19T11:53:05.164Z,99879.91
2019-02-19T11:55:37.572Z,99877.77
2019-02-19T11:58:09.991Z,99874.65
2019-02-19T12:00:42.895Z,99871.57
2019-02-19T12:03:15.463Z,99876.45
2019-02-19T12:05:47.867Z,99868.78
2019-02-19T12:08:21.314Z,99868.53
2019-02-19T12:10:53.849Z,99863.84
2019-02-19T12:13:26.262Z,99865.09
2019-02-19T12:15:58.655Z,99868.33
2019-02-19T12:18:31.027Z,99876.77
2019-02-19T12:21:03.433Z,99877.69
2019-02-19T12:23:35.825Z,99879.50
2019-02-19T12:26:08.320Z,99877.97
2019-02-19T12:28:40.688Z,99876.20
2019-02-19T12:31:13.107Z,99874.99
2019-02-19T12:33:45.487Z,99867.08
2019-02-19T12:36:17.887Z,99869.58
2019-02-19T12:38:50.267Z,99863.42
2019-02-19T12:41:22.973Z,99855.45
2019-02-19T12:43:55.346Z,99852.55
2019-02-19T12:46:27.762Z,99851.66
2019-02-19T12:49:00.152Z,99842.95
2019-02-19T12:51:32.555Z,99844.82
2019-02-19T12:54:04.932Z,99836.23
2019-02-19T12:56:37.336Z,99837.05
2019-02-19T12:59:09.724Z,99832.66
2019-02-19T13:01:42.128Z,99827.58
2019-02-19T13:04:14.511Z,99829.14
2019-02-19T13:06:46.924Z,99820.02
2019-02-19T13:09:19.320Z,99817.46
2019-02-19T13:11:51.737Z,99812.80
2019-02-19T13:14:24.200Z,99818.19
2019-02-19T13:16:56.621Z,99817.17
2019-02-19T13:19:28.996Z,99817.45
2019-02-19T13:22:01.408Z,99813.59
2019-02-19T13:24:33.784Z,99821.39
2019-02-19T13:27:06.194Z,99820.52
2019-02-19T13:29:38.570Z,99817.92
2019-02-19T13:32:10.972Z,99818.30
2019-02-19T13:34:43.355Z,99816.22
2019-02-19T13:37:15.766Z,99811.13
2019-02-19T13:39:48.170Z,99812.86
2019-02-19T13:42:20.511Z,99816.45
2019-02-19T13:44:52.882Z,99814.85
2019-02-19T13:47:25.308Z,99822.30
2019-02-19T13:49:57.692Z,99818.65
2019-02-19T13:52:41.421Z,99817.20
2019-02-19T13:55:17.909Z,99810.34
2019-02-19T13:57:50.326Z,99811.53
2019-02-19T14:00:24.581Z,99808.59
2019-02-19T14:02:56.985Z,99808.06
2019-02-19T14:05:29.290Z,99808.55
2019-02-19T14:08:01.693Z,99805.52
2019-02-19T14:10:34.256Z,99804.09
2019-02-19T14:13:07.736Z,99802.41
2019-02-19T14:15:56.196Z,99804.90
2019-02-19T14:18:46.930Z,99805.58
2019-02-19T14:21:41.210Z,99809.35
2019-02-19T14:24:31.538Z,99812.47
2019-02-19T14:27:34.890Z,99811.15
2019-02-19T14:30:35.065Z,99810.98
2019-02-19T14:33:48.755Z,99810.41
2019-02-19T14:36:33.827Z,99812.09
2019-02-19T14:39:28.503Z,99818.02
2019-02-19T14:42:32.068Z,99821.34
2019-02-19T14:45:20.977Z,99814.75
2019-02-19T14:48:10.960Z,99816.09
2019-02-19T14:51:02.224Z,99812.27
2019-02-19T14:53:52.450Z,99815.46
2019-02-19T14:56:38.919Z,99819.03
2019-02-19T14:59:48.945Z,99821.09
2019-02-19T15:02:52.218Z,99818.16
2019-02-19T15:05:43.546Z,99814.63
2019-02-19T15:08:25.906Z,99815.14
2019-02-19T15:11:16.097Z,99810.56
2019-02-19T15:14:04.856Z,99810.83
2019-02-19T15:16:59.439Z,99804.92
2019-02-19T15:19:42.184Z,99806.67
2019-02-19T15:22:31.739Z,99808.59
2019-02-19T15:25:35.431Z,99807.31
2019-02-19T15:28:25.492Z,99807.67
2019-02-19T15:31:19.881Z,99808.45
2019-02-19T15:34:09.938Z,99811.01
2019-02-19T15:37:00.369Z,99811.65
2019-02-19T15:40:07.277Z,99808.38
2019-02-19T15:43:13.478Z,99811.34
2019-02-19T15:46:03.518Z,99809.23
2019-02-19T15:49:04.562Z,99812.11
2019-02-19T15:52:01.811Z,99804.10
2019-02-19T15:55:08.479Z,99805.05
2019-02-19T15:58:04.817Z,99804.23
2019-02-19T16:00:45.276Z,99808.11
2019-02-19T16:03:31.503Z,99811.93
2019-02-19T16:06:19.586Z,99808.87
2019-02-19T16:09:09.742Z,99811.83
2019-02-19T16:12:00.054Z,99815.17
2019-02-19T16:14:53.050Z,99814.14
2019-02-19T16:17:43.634Z,99816.24
2019-02-19T16:20:38.125Z,99823.80
2019-02-19T16:23:32.556Z,99827.73
2019-02-19T16:26:36.416Z,99825.92
2019-02-19T16:29:27.794Z,99819.92
2019-02-19T16:32:16.838Z,99823.22
2019-02-19T16:35:00.827Z,99827.80
2019-02-19T16:37:53.322Z,99826.84
2019-02-19T16:40:43.723Z,99828.44
2019-02-19T16:43:41.088Z,99831.91
2019-02-19T16:46:18.945Z,99828.08
2019-02-19T16:49:02.128Z,99832.36
2019-02-19T16:51:53.911Z,99829.80
2019-02-19T16:54:35.451Z,99829.89
2019-02-19T16:57:13.547Z,99835.11
2019-02-19T17:00:05.750Z,99831.53
2019-02-19T17:02:58.304Z,99838.86
2019-02-19T17:05:49.842Z,99843.03
2019-02-19T17:08:45.829Z,99838.42
2019-02-19T17:11:37.559Z,99842.77
2019-02-19T17:14:33.333Z,99841.52
2019-02-19T17:17:13.661Z,99850.83
2019-02-19T17:20:26.408Z,99855.95
2019-02-19T17:23:09.100Z,99862.95
2019-02-19T17:25:59.198Z,99861.38
2019-02-19T17:28:49.389Z,99865.05
2019-02-19T17:31:37.726Z,99867.05
2019-02-19T17:34:29.345Z,99859.58
2019-02-19T17:37:26.983Z,99862.81
2019-02-19T17:40:13.838Z,99869.88
2019-02-19T17:43:17.705Z,99871.81
2019-02-19T17:45:57.489Z,99879.22
2019-02-19T17:48:45.971Z,99880.02
2019-02-19T17:51:43.327Z,99880.98
2019-02-19T17:54:28.790Z,99882.70
2019-02-19T17:57:23.604Z,99880.06
2019-02-19T18:00:10.549Z,99887.34
2019-02-19T18:03:08.425Z,99884.71
2019-02-19T18:05:57.568Z,99890.80
2019-02-19T18:08:39.011Z,99894.23
2019-02-19T18:11:33.381Z,99894.25
2019-02-19T18:14:24.715Z,99896.72
2019-02-19T18:17:14.438Z,99896.75
2019-02-19T18:19:46.845Z,99899.63
2019-02-19T18:22:19.224Z,99902.33
2019-02-19T18:24:51.619Z,99902.22
2019-02-19T18:27:24.092Z,99904.30
2019-02-19T18:29:56.572Z,99904.16
2019-02-19T18:32:30.640Z,99906.00
2019-02-19T18:35:03.109Z,99908.01
2019-02-19T18:37:36.712Z,99905.40
2019-02-19T18:40:09.357Z,99900.84
2019-02-19T18:42:41.780Z,99906.30
2019-02-19T18:45:14.327Z,99906.20
2019-02-19T18:47:46.921Z,99907.70
2019-02-19T18:50:19.451Z,99907.14
2019-02-19T18:52:51.823Z,99908.64
2019-02-19T18:55:24.241Z,99909.05
2019-02-19T18:57:56.639Z,99909.05
2019-02-19T19:00:29.048Z,99916.39
2019-02-19T19:03:01.486Z,99918.41
2019-02-19T19:05:33.881Z,99918.72
2019-02-19T19:08:09.740Z,99922.39
2019-02-19T19:10:42.152Z,99918.34
2019-02-19T19:13:14.520Z,99926.00
2019-02-19T19:15:47.007Z,99925.03
2019-02-19T19:18:20.351Z,99930.77
2019-02-19T19:20:52.743Z,99934.11
2019-02-19T19:23:25.116Z,99940.72
2019-02-19T19:25:57.639Z,99939.00
2019-02-19T19:28:30.061Z,99940.83
2019-02-19T19:31:02.478Z,99942.75
2019-02-19T19:33:34.856Z,99951.11
2019-02-19T19:36:07.269Z,99952.29
2019-02-19T19:38:39.642Z,99961.83
2019-02-19T19:41:12.151Z,99955.23
2019-02-19T19:43:44.537Z,99951.52
2019-02-19T19:46:16.943Z,99948.68
2019-02-19T19:48:49.355Z,99950.69
2019-02-19T19:51:22.048Z,99953.14
2019-02-19T19:53:54.425Z,99954.99
2019-02-19T19:56:27.906Z,99958.33
2019-02-19T19:59:00.294Z,99954.25
2019-02-19T20:01:32.837Z,99957.27
2019-02-19T20:04:05.335Z,99956.97
2019-02-19T20:06:37.733Z,99968.06
2019-02-19T20:09:10.133Z,99967.81
2019-02-19T20:11:43.955Z,99974.67
2019-02-19T20:14:16.329Z,99970.36
2019-02-19T20:16:48.948Z,99971.95
2019-02-19T20:19:21.378Z,99971.32
2019-02-19T20:21:53.817Z,99980.29
2019-02-19T20:24:26.510Z,99975.59
2019-02-19T20:26:59.082Z,99979.39
2019-02-19T20:29:31.473Z,99988.53
2019-02-19T20:32:06.937Z,99984.72
2019-02-19T20:34:39.330Z,99986.02
2019-02-19T20:37:11.736Z,99984.83
2019-02-19T20:39:44.243Z,99992.28
2019-02-19T20:42:18.315Z,99996.70
2019-02-19T20:44:50.684Z,99993.23
2019-02-19T20:47:24.167Z,100000.17
2019-02-19T20:49:56.573Z,99997.10
2019-02-19T20:52:28.981Z,99996.33
2019-02-19T20:55:01.362Z,99995.71
2019-02-19T20:57:35.233Z,100000.45
2019-02-19T21:00:11.595Z,99995.85
2019-02-19T21:02:45.609Z,99998.20
2019-02-19T21:05:18.060Z,99998.90
2019-02-19T21:07:50.742Z,100004.13
2019-02-19T21:10:23.139Z,100002.73
2019-02-19T21:12:55.562Z,100000.02
2019-02-19T21:15:27.946Z,99999.92
2019-02-19T21:18:00.366Z,100000.18
2019-02-19T21:20:32.841Z,99998.34
2019-02-19T21:23:05.521Z,100001.28
2019-02-19T21:25:37.992Z,100004.02
2019-02-19T21:28:10.403Z,100007.75
2019-02-19T21:30:42.902Z,100008.83
2019-02-19T21:33:15.381Z,100008.42
2019-02-19T21:35:47.764Z,100010.57
2019-02-19T21:38:20.348Z,100006.44
2019-02-19T21:40:52.808Z,100004.25
2019-02-19T21:43:25.275Z,100006.87
2019-02-19T21:45:57.741Z,100008.73
2019-02-19T21:48:30.146Z,100009.44
2019-02-19T21:51:02.523Z,100006.17
2019-02-19T21:53:35.003Z,100008.67
2019-02-19T21:56:07.454Z,100011.82
2019-02-19T21:58:39.937Z,100012.30
2019-02-19T22:01:12.395Z,100014.98
2019-02-19T22:03:45.017Z,100016.52
2019-02-19T22:06:17.481Z,100016.08
2019-02-19T22:08:51.055Z,100024.59
2019-02-19T22:11:23.447Z,100021.71
2019-02-19T22:13:56.821Z,100023.94
2019-02-19T22:16:29.209Z,100022.16
2019-02-19T22:19:01.628Z,100021.42
2019-02-19T22:21:42.144Z,100022.59
2019-02-19T22:24:16.196Z,100027.25
2019-02-19T22:26:48.588Z,100028.99
2019-02-19T22:29:21.009Z,100029.22
2019-02-19T22:31:53.415Z,100028.58
2019-02-19T22:34:25.814Z,100031.89
2019-02-19T22:36:58.197Z,100028.45
2019-02-19T22:39:30.609Z,100030.84
2019-02-19T22:42:03.003Z,100029.53
2019-02-19T22:44:35.339Z,100028.41
2019-02-19T22:47:07.734Z,100032.96
2019-02-19T22:49:40.146Z,100029.98
2019-02-19T22:52:12.928Z,100028.38
2019-02-19T22:55:00.737Z,100032.75
2019-02-19T22:57:33.130Z,100026.81
2019-02-19T23:00:08.632Z,100038.75
2019-02-19T23:02:42.689Z,100034.83
2019-02-19T23:05:15.171Z,100036.09
2019-02-19T23:07:47.558Z,100036.39
2019-02-19T23:10:19.961Z,100039.44
2019-02-19T23:12:52.410Z,100038.38
2019-02-19T23:15:24.819Z,100037.52
2019-02-19T23:17:57.282Z,100040.09
2019-02-19T23:20:29.679Z,100042.19
2019-02-19T23:23:02.071Z,100040.96
2019-02-19T23:25:34.486Z,100044.45
2019-02-19T23:28:06.871Z,100041.44
2019-02-19T23:30:40.291Z,100042.92
2019-02-19T23:33:12.755Z,100046.95
2019-02-19T23:35:59.197Z,100047.48
2019-02-19T23:38:31.514Z,100046.15
2019-02-19T23:41:03.933Z,100047.23
2019-02-19T23:43:36.325Z,100044.54
2019-02-19T23:46:08.731Z,100045.30
2019-02-19T23:48:41.122Z,100046.44
2019-02-19T23:51:13.541Z,100049.39
2019-02-19T23:53:45.929Z,100049.23
2019-02-19T23:56:18.335Z,100055.25
2019-02-19T23:58:50.720Z,100047.86
